Time;durP1;ratioP1;P1;durP2;ratioP2;P2;SDS_P1;SDS_P2;PMS_P1;PMS_P2;Temp;Humidity;BMP_temperature;BMP_pressure;BME280_temperature;BME280_humidity;BME280_pressure;Samples;Min_cycle;Max_cycle;Signal;HPM_P1;HPM_P2
2024/01/07 00:00:53;0.00;0.00;0.62;0.00;0.00;0.62;2.90;1.83;;;19.70;24.20;;;;;;2248843;61;20391;-55
2024/01/07 00:03:41;0.00;0.00;0.62;0.00;0.00;0.62;2.70;1.80;;;19.70;24.20;;;;;;2248168;61;20838;-53
2024/01/07 00:06:25;0.00;0.00;0.62;0.00;0.00;0.62;2.93;2.10;;;19.70;24.30;;;;;;2249094;61;20375;-54
2024/01/07 00:09:12;0.00;0.00;0.62;0.00;0.00;0.62;3.20;1.60;;;19.70;24.20;;;;;;2248936;61;20364;-59
2024/01/07 00:11:57;0.00;0.00;0.62;0.00;0.00;0.62;2.90;2.13;;;19.70;24.20;;;;;;2248588;61;20409;-57
2024/01/07 00:14:42;0.00;0.00;0.62;0.00;0.00;0.62;2.33;1.80;;;19.70;24.20;;;;;;2249726;61;20958;-57
2024/01/07 00:17:26;0.00;0.00;0.62;0.00;0.00;0.62;3.53;2.43;;;19.70;24.20;;;;;;2252337;61;20374;-56
2024/01/07 00:20:11;0.00;0.00;0.62;0.00;0.00;0.62;2.07;1.63;;;19.70;24.20;;;;;;2252802;61;20362;-57
2024/01/07 00:22:56;0.00;0.00;0.62;0.00;0.00;0.62;2.03;1.50;;;19.60;24.10;;;;;;2252547;61;20821;-55
2024/01/07 00:25:42;0.00;0.00;0.62;0.00;0.00;0.62;2.80;1.63;;;19.70;24.20;;;;;;2253196;61;20505;-54
2024/01/07 00:28:26;0.00;0.00;0.62;0.00;0.00;0.62;2.40;1.80;;;19.70;24.20;;;;;;2253562;61;20386;-55
2024/01/07 00:31:12;0.00;0.00;0.62;0.00;0.00;0.62;2.33;1.60;;;19.70;24.20;;;;;;2253268;61;20441;-58
2024/01/07 00:33:56;0.00;0.00;0.62;0.00;0.00;0.62;2.37;1.50;;;19.70;24.20;;;;;;2253426;61;20363;-58
2024/01/07 00:36:41;0.00;0.00;0.62;0.00;0.00;0.62;2.03;1.57;;;19.70;24.20;;;;;;2253435;61;20367;-55
2024/01/07 00:39:25;0.00;0.00;0.62;0.00;0.00;0.62;2.63;1.70;;;19.70;24.20;;;;;;2253287;61;20853;-57
2024/01/07 00:42:11;0.00;0.00;0.62;0.00;0.00;0.62;2.37;1.70;;;19.70;24.20;;;;;;2253055;61;21037;-57
2024/01/07 00:44:56;0.00;0.00;0.62;0.00;0.00;0.62;2.43;1.90;;;19.70;24.20;;;;;;2253064;61;20439;-56
2024/01/07 00:47:41;0.00;0.00;0.62;0.00;0.00;0.62;2.20;1.80;;;19.70;24.20;;;;;;2252595;61;20827;-58
2024/01/07 00:50:26;0.00;0.00;0.62;0.00;0.00;0.62;2.40;1.83;;;19.70;24.20;;;;;;2253837;61;20465;-56
2024/01/07 00:53:10;0.00;0.00;0.62;0.00;0.00;0.62;2.13;1.50;;;19.70;24.10;;;;;;2252717;61;20906;-57
2024/01/07 00:55:55;0.00;0.00;0.62;0.00;0.00;0.62;2.33;1.80;;;19.70;24.10;;;;;;2253419;61;20383;-52
2024/01/07 00:58:41;0.00;0.00;0.62;0.00;0.00;0.62;2.00;1.60;;;19.70;24.10;;;;;;2253538;61;20899;-57
2024/01/07 01:01:25;0.00;0.00;0.62;0.00;0.00;0.62;3.60;2.00;;;19.60;24.00;;;;;;2253120;61;20410;-56
2024/01/07 01:04:10;0.00;0.00;0.62;0.00;0.00;0.62;2.90;1.80;;;19.60;24.00;;;;;;2253367;61;20838;-57
2024/01/07 01:06:54;0.00;0.00;0.62;0.00;0.00;0.62;2.60;1.77;;;19.60;24.00;;;;;;2253701;61;20370;-56
2024/01/07 01:09:39;0.00;0.00;0.62;0.00;0.00;0.62;2.60;1.73;;;19.60;24.00;;;;;;2253189;61;20420;-53
2024/01/07 01:12:24;0.00;0.00;0.62;0.00;0.00;0.62;2.30;1.60;;;19.60;24.00;;;;;;2253161;61;20362;-62
2024/01/07 01:15:10;0.00;0.00;0.62;0.00;0.00;0.62;2.37;1.80;;;19.60;24.60;;;;;;2253373;61;20367;-55
2024/01/07 01:17:55;0.00;0.00;0.62;0.00;0.00;0.62;4.13;2.20;;;19.60;24.00;;;;;;2252979;61;20781;-57
2024/01/07 01:20:39;0.00;0.00;0.62;0.00;0.00;0.62;2.27;1.57;;;19.60;24.00;;;;;;2253617;61;20829;-55
2024/01/07 01:23:24;0.00;0.00;0.62;0.00;0.00;0.62;1.97;1.57;;;19.60;24.00;;;;;;2252613;61;20919;-58
2024/01/07 01:26:09;0.00;0.00;0.62;0.00;0.00;0.62;2.70;1.90;;;19.60;24.00;;;;;;2253040;61;20367;-56
2024/01/07 01:28:53;0.00;0.00;0.62;0.00;0.00;0.62;2.20;1.60;;;19.60;24.20;;;;;;2253286;61;20366;-55
2024/01/07 01:31:40;0.00;0.00;0.62;0.00;0.00;0.62;3.20;1.90;;;19.60;24.00;;;;;;2252797;61;20378;-53
2024/01/07 01:34:25;0.00;0.00;0.62;0.00;0.00;0.62;3.23;1.93;;;19.60;24.00;;;;;;2252850;61;20417;-54
2024/01/07 01:37:09;0.00;0.00;0.62;0.00;0.00;0.62;2.90;1.70;;;19.60;24.00;;;;;;2253836;61;20430;-56
2024/01/07 01:39:54;0.00;0.00;0.62;0.00;0.00;0.62;2.53;2.07;;;19.60;24.00;;;;;;2253191;61;20374;-54
2024/01/07 01:42:43;0.00;0.00;0.62;0.00;0.00;0.62;2.33;1.70;;;19.60;24.00;;;;;;2253091;61;20425;-56
2024/01/07 01:45:28;0.00;0.00;0.62;0.00;0.00;0.62;2.37;1.63;;;19.60;24.00;;;;;;2253382;61;20906;-59
2024/01/07 01:48:13;0.00;0.00;0.62;0.00;0.00;0.62;2.10;1.70;;;19.60;24.00;;;;;;2253591;61;20366;-55
2024/01/07 01:50:59;0.00;0.00;0.62;0.00;0.00;0.62;2.87;2.13;;;19.60;24.00;;;;;;2253066;61;20526;-58
2024/01/07 01:53:45;0.00;0.00;0.62;0.00;0.00;0.62;3.03;2.00;;;19.60;23.90;;;;;;2252309;61;20382;-59
2024/01/07 01:56:30;0.00;0.00;0.62;0.00;0.00;0.62;2.40;1.70;;;19.60;24.00;;;;;;2253573;61;20437;-56
2024/01/07 01:59:16;0.00;0.00;0.62;0.00;0.00;0.62;2.73;1.87;;;19.60;23.90;;;;;;2253240;61;20383;-58
2024/01/07 02:02:01;0.00;0.00;0.62;0.00;0.00;0.62;2.23;1.60;;;19.60;24.00;;;;;;2252721;61;20398;-55
2024/01/07 02:04:47;0.00;0.00;0.62;0.00;0.00;0.62;3.13;2.33;;;19.60;24.00;;;;;;2253403;61;20468;-58
2024/01/07 02:07:32;0.00;0.00;0.62;0.00;0.00;0.62;2.03;1.73;;;19.60;23.90;;;;;;2253144;61;20379;-57
2024/01/07 02:10:17;0.00;0.00;0.62;0.00;0.00;0.62;3.20;2.10;;;19.50;23.90;;;;;;2252989;61;20903;-54
2024/01/07 02:13:02;0.00;0.00;0.62;0.00;0.00;0.62;2.53;1.73;;;19.50;23.90;;;;;;2252887;61;20594;-60
2024/01/07 02:15:47;0.00;0.00;0.62;0.00;0.00;0.62;2.60;1.70;;;19.50;23.90;;;;;;2252937;61;20366;-58
2024/01/07 02:18:32;0.00;0.00;0.62;0.00;0.00;0.62;3.00;2.00;;;19.50;23.80;;;;;;2253549;61;20361;-57
2024/01/07 02:21:18;0.00;0.00;0.62;0.00;0.00;0.62;3.03;1.87;;;19.50;23.80;;;;;;2253211;61;20786;-56
2024/01/07 02:24:14;0.00;0.00;0.62;0.00;0.00;0.62;2.10;1.67;;;19.50;23.90;;;;;;2252334;61;20445;-58
2024/01/07 02:27:02;0.00;0.00;0.62;0.00;0.00;0.62;2.50;1.70;;;19.50;23.80;;;;;;2250556;61;20502;-60
2024/01/07 02:29:47;0.00;0.00;0.62;0.00;0.00;0.62;2.87;1.90;;;19.50;23.80;;;;;;2426160;45;20471;-61
2024/01/07 02:32:34;0.00;0.00;0.62;0.00;0.00;0.62;3.03;1.87;;;19.50;23.80;;;;;;2435775;45;20367;-59
2024/01/07 02:35:19;0.00;0.00;0.62;0.00;0.00;0.62;3.13;2.07;;;19.50;23.80;;;;;;2513704;53;20399;-56
2024/01/07 02:38:04;0.00;0.00;0.62;0.00;0.00;0.62;3.47;1.97;;;19.50;23.80;;;;;;2249177;61;20422;-58
2024/01/07 02:40:50;0.00;0.00;0.62;0.00;0.00;0.62;2.93;2.10;;;19.50;23.80;;;;;;2246015;61;20395;-57
2024/01/07 02:43:35;0.00;0.00;0.62;0.00;0.00;0.62;2.77;1.90;;;19.50;23.80;;;;;;2248950;61;20967;-57
2024/01/07 02:46:20;0.00;0.00;0.62;0.00;0.00;0.62;2.80;1.87;;;19.50;23.80;;;;;;2248719;61;20383;-57
2024/01/07 02:49:04;0.00;0.00;0.62;0.00;0.00;0.62;2.20;1.83;;;19.50;23.80;;;;;;2249427;61;20447;-58
2024/01/07 02:51:49;0.00;0.00;0.62;0.00;0.00;0.62;2.77;1.90;;;19.50;23.80;;;;;;2249141;61;20392;-58
2024/01/07 02:54:34;0.00;0.00;0.62;0.00;0.00;0.62;3.17;1.80;;;19.50;24.30;;;;;;2249182;61;20897;-59
2024/01/07 02:57:20;0.00;0.00;0.62;0.00;0.00;0.62;2.20;1.60;;;19.50;23.80;;;;;;2249395;61;20399;-57
2024/01/07 03:00:07;0.00;0.00;0.62;0.00;0.00;0.62;2.23;1.77;;;19.50;23.80;;;;;;2248935;61;20372;-60
2024/01/07 03:02:53;0.00;0.00;0.62;0.00;0.00;0.62;2.60;1.50;;;19.50;23.80;;;;;;2248396;61;20411;-58
2024/01/07 03:05:38;0.00;0.00;0.62;0.00;0.00;0.62;2.93;1.93;;;19.50;23.80;;;;;;2248858;61;20390;-57
2024/01/07 03:08:22;0.00;0.00;0.62;0.00;0.00;0.62;2.53;1.80;;;19.50;23.80;;;;;;2248890;61;20427;-57
2024/01/07 03:11:07;0.00;0.00;0.62;0.00;0.00;0.62;3.70;2.13;;;19.50;23.80;;;;;;2248599;61;20808;-58
2024/01/07 03:13:53;0.00;0.00;0.62;0.00;0.00;0.62;4.30;2.00;;;19.40;23.70;;;;;;2248411;61;20368;-56
2024/01/07 03:16:38;0.00;0.00;0.62;0.00;0.00;0.62;2.60;1.43;;;19.50;23.80;;;;;;2482201;53;20403;-56
2024/01/07 03:19:22;0.00;0.00;0.62;0.00;0.00;0.62;3.00;1.90;;;19.50;23.70;;;;;;2248606;61;20479;-57
2024/01/07 03:22:08;0.00;0.00;0.62;0.00;0.00;0.62;2.13;1.50;;;19.50;23.70;;;;;;2248106;61;20399;-56
2024/01/07 03:24:53;0.00;0.00;0.62;0.00;0.00;0.62;3.33;1.87;;;19.50;23.70;;;;;;2248754;61;20383;-60
2024/01/07 03:27:37;0.00;0.00;0.62;0.00;0.00;0.62;2.30;1.50;;;19.50;23.70;;;;;;2248614;61;20456;-52
2024/01/07 03:30:23;0.00;0.00;0.62;0.00;0.00;0.62;2.50;1.70;;;19.40;23.60;;;;;;2248261;61;20951;-53
2024/01/07 03:33:08;0.00;0.00;0.62;0.00;0.00;0.62;2.50;1.80;;;19.40;23.60;;;;;;2248288;61;20376;-60
2024/01/07 03:35:52;0.00;0.00;0.62;0.00;0.00;0.62;2.30;1.50;;;19.40;23.60;;;;;;2248631;61;20773;-58
2024/01/07 03:38:38;0.00;0.00;0.62;0.00;0.00;0.62;2.80;1.83;;;19.40;24.20;;;;;;2248274;61;20367;-58
2024/01/07 03:41:23;0.00;0.00;0.62;0.00;0.00;0.62;3.10;1.50;;;19.40;23.60;;;;;;2248346;61;20399;-58
2024/01/07 03:44:08;0.00;0.00;0.62;0.00;0.00;0.62;2.53;1.77;;;19.40;23.60;;;;;;2248236;61;20435;-53
2024/01/07 03:46:54;0.00;0.00;0.62;0.00;0.00;0.62;2.47;1.70;;;19.40;23.60;;;;;;2248723;61;20900;-53
2024/01/07 03:49:38;0.00;0.00;0.62;0.00;0.00;0.62;2.20;1.40;;;19.40;23.60;;;;;;2252371;61;20367;-56
2024/01/07 03:52:23;0.00;0.00;0.62;0.00;0.00;0.62;2.37;1.47;;;19.40;23.60;;;;;;2251893;61;20371;-59
2024/01/07 03:55:08;0.00;0.00;0.62;0.00;0.00;0.62;3.23;1.70;;;19.40;23.60;;;;;;2252322;61;20367;-58
2024/01/07 03:57:53;0.00;0.00;0.62;0.00;0.00;0.62;2.00;1.50;;;19.40;23.60;;;;;;2252465;61;20417;-53
2024/01/07 04:00:37;0.00;0.00;0.62;0.00;0.00;0.62;2.60;1.50;;;19.40;23.60;;;;;;2251874;61;20410;-56
2024/01/07 04:03:23;0.00;0.00;0.62;0.00;0.00;0.62;1.83;1.40;;;19.40;23.60;;;;;;2252131;61;20367;-58
2024/01/07 04:06:08;0.00;0.00;0.62;0.00;0.00;0.62;1.97;1.30;;;19.40;23.60;;;;;;2252377;61;20483;-59
2024/01/07 04:08:52;0.00;0.00;0.62;0.00;0.00;0.62;2.60;1.60;;;19.40;23.60;;;;;;2252335;61;20421;-58
2024/01/07 04:11:40;0.00;0.00;0.62;0.00;0.00;0.62;3.97;1.27;;;19.40;23.60;;;;;;2252031;61;20406;-59
2024/01/07 04:14:27;0.00;0.00;0.62;0.00;0.00;0.62;2.00;1.20;;;19.40;23.60;;;;;;2252059;61;20444;-57
2024/01/07 04:17:11;0.00;0.00;0.62;0.00;0.00;0.62;2.23;1.30;;;19.30;23.50;;;;;;2252531;61;20774;-58
2024/01/07 04:19:58;0.00;0.00;0.62;0.00;0.00;0.62;2.87;1.43;;;19.40;23.60;;;;;;2252433;61;20821;-53
2024/01/07 04:22:43;0.00;0.00;0.62;0.00;0.00;0.62;2.50;1.40;;;19.40;23.60;;;;;;2251636;61;20409;-58
2024/01/07 04:25:27;0.00;0.00;0.62;0.00;0.00;0.62;2.57;1.73;;;19.30;23.50;;;;;;2252187;61;21000;-54
2024/01/07 04:28:12;0.00;0.00;0.62;0.00;0.00;0.62;2.47;1.50;;;19.30;23.50;;;;;;2251768;61;20365;-56
2024/01/07 04:30:57;0.00;0.00;0.62;0.00;0.00;0.62;2.10;1.53;;;19.30;23.50;;;;;;2252272;61;20386;-59
2024/01/07 04:33:41;0.00;0.00;0.62;0.00;0.00;0.62;2.30;1.10;;;19.30;23.50;;;;;;2251902;61;20945;-57
2024/01/07 04:36:27;0.00;0.00;0.62;0.00;0.00;0.62;1.87;1.33;;;19.30;23.50;;;;;;2251386;61;20351;-56
2024/01/07 04:39:11;0.00;0.00;0.62;0.00;0.00;0.62;2.17;1.10;;;19.30;23.50;;;;;;2252358;61;20379;-56
2024/01/07 04:41:56;0.00;0.00;0.62;0.00;0.00;0.62;2.20;1.40;;;19.30;23.50;;;;;;2251771;61;20383;-56
2024/01/07 04:44:41;0.00;0.00;0.62;0.00;0.00;0.62;2.03;1.30;;;19.30;23.50;;;;;;2251761;61;20390;-56
2024/01/07 04:47:28;0.00;0.00;0.62;0.00;0.00;0.62;2.13;1.23;;;19.30;23.40;;;;;;2252351;61;20399;-54
2024/01/07 04:50:14;0.00;0.00;0.62;0.00;0.00;0.62;1.70;1.20;;;19.30;23.50;;;;;;2252195;61;20820;-57
2024/01/07 04:53:00;0.00;0.00;0.62;0.00;0.00;0.62;2.07;1.20;;;19.30;23.40;;;;;;2251198;61;20421;-60
2024/01/07 04:55:45;0.00;0.00;0.62;0.00;0.00;0.62;2.10;1.33;;;19.30;23.40;;;;;;2251946;61;20574;-59
2024/01/07 04:58:29;0.00;0.00;0.62;0.00;0.00;0.62;1.83;1.20;;;19.30;23.40;;;;;;2251785;61;20452;-56
2024/01/07 05:01:14;0.00;0.00;0.62;0.00;0.00;0.62;1.70;1.10;;;19.30;23.40;;;;;;2252261;61;20441;-58
2024/01/07 05:03:58;0.00;0.00;0.62;0.00;0.00;0.62;2.13;1.20;;;19.30;23.40;;;;;;2251997;61;20459;-59
2024/01/07 05:06:45;0.00;0.00;0.62;0.00;0.00;0.62;2.43;1.43;;;19.30;23.40;;;;;;2251817;61;20405;-58
2024/01/07 05:09:32;0.00;0.00;0.62;0.00;0.00;0.62;2.07;1.30;;;19.30;23.40;;;;;;2252026;61;20418;-56
2024/01/07 05:12:17;0.00;0.00;0.62;0.00;0.00;0.62;2.50;1.20;;;19.30;23.40;;;;;;2252515;61;20394;-58
2024/01/07 05:15:02;0.00;0.00;0.62;0.00;0.00;0.62;1.73;1.20;;;19.30;23.90;;;;;;2252596;61;20441;-57
2024/01/07 05:17:46;0.00;0.00;0.62;0.00;0.00;0.62;2.33;1.20;;;19.30;23.40;;;;;;2252729;61;20381;-56
2024/01/07 05:20:31;0.00;0.00;0.62;0.00;0.00;0.62;2.17;1.30;;;19.30;23.40;;;;;;2252499;61;20454;-58
2024/01/07 05:23:16;0.00;0.00;0.62;0.00;0.00;0.62;3.87;1.40;;;19.30;23.40;;;;;;2252534;61;20378;-57
2024/01/07 05:26:03;0.00;0.00;0.62;0.00;0.00;0.62;1.80;1.20;;;19.30;23.40;;;;;;2252884;61;20406;-59
2024/01/07 05:28:47;0.00;0.00;0.62;0.00;0.00;0.62;1.90;1.40;;;19.20;23.30;;;;;;2251940;61;20420;-59
2024/01/07 05:31:32;0.00;0.00;0.62;0.00;0.00;0.62;2.20;1.40;;;19.30;23.40;;;;;;2252490;61;20390;-57
2024/01/07 05:34:16;0.00;0.00;0.62;0.00;0.00;0.62;2.10;1.17;;;19.20;23.30;;;;;;2252736;61;20794;-60
2024/01/07 05:37:01;0.00;0.00;0.62;0.00;0.00;0.62;1.73;1.30;;;19.20;23.30;;;;;;2252303;61;20397;-57
2024/01/07 05:39:47;0.00;0.00;0.62;0.00;0.00;0.62;1.83;1.37;;;19.20;23.30;;;;;;2252358;61;20429;-55
2024/01/07 05:42:33;0.00;0.00;0.62;0.00;0.00;0.62;1.83;1.10;;;19.20;23.30;;;;;;2252220;61;20437;-53
2024/01/07 05:45:18;0.00;0.00;0.62;0.00;0.00;0.62;1.70;1.27;;;19.20;23.30;;;;;;2252799;61;20946;-57
2024/01/07 05:48:03;0.00;0.00;0.62;0.00;0.00;0.62;1.73;1.23;;;19.20;23.30;;;;;;2252828;61;20367;-57
2024/01/07 05:50:47;0.00;0.00;0.62;0.00;0.00;0.62;1.60;1.00;;;19.20;23.20;;;;;;2252568;61;20526;-58
2024/01/07 05:53:32;0.00;0.00;0.62;0.00;0.00;0.62;1.50;0.90;;;19.20;23.20;;;;;;2252350;61;20422;-58
2024/01/07 05:56:16;0.00;0.00;0.62;0.00;0.00;0.62;1.80;1.20;;;19.20;23.20;;;;;;2252720;61;20418;-59
2024/01/07 05:59:02;0.00;0.00;0.62;0.00;0.00;0.62;2.00;1.30;;;19.20;23.30;;;;;;2252254;61;20482;-59
2024/01/07 06:01:47;0.00;0.00;0.62;0.00;0.00;0.62;1.67;1.00;;;19.20;23.20;;;;;;2252138;61;20875;-59
2024/01/07 06:04:32;0.00;0.00;0.62;0.00;0.00;0.62;2.13;1.23;;;19.20;23.20;;;;;;2252678;61;20429;-60
2024/01/07 06:07:16;0.00;0.00;0.62;0.00;0.00;0.62;2.17;1.40;;;19.20;23.20;;;;;;2252879;61;20367;-57
2024/01/07 06:10:00;0.00;0.00;0.62;0.00;0.00;0.62;2.57;1.20;;;19.20;23.20;;;;;;2252861;61;20371;-58
2024/01/07 06:12:45;0.00;0.00;0.62;0.00;0.00;0.62;2.07;1.13;;;19.20;23.20;;;;;;2252169;61;20374;-57
2024/01/07 06:15:31;0.00;0.00;0.62;0.00;0.00;0.62;1.70;1.00;;;19.20;23.20;;;;;;2252141;61;20367;-59
2024/01/07 06:18:15;0.00;0.00;0.62;0.00;0.00;0.62;1.80;1.03;;;19.20;23.20;;;;;;2252678;61;20370;-56
2024/01/07 06:21:00;0.00;0.00;0.62;0.00;0.00;0.62;2.40;1.60;;;19.10;23.60;;;;;;2252223;61;20931;-57
2024/01/07 06:23:45;0.00;0.00;0.62;0.00;0.00;0.62;1.97;1.03;;;19.10;23.10;;;;;;2252303;61;20377;-59
2024/01/07 06:26:30;0.00;0.00;0.62;0.00;0.00;0.62;1.83;1.10;;;19.10;23.10;;;;;;2252612;61;20848;-59
2024/01/07 06:29:14;0.00;0.00;0.62;0.00;0.00;0.62;2.20;1.20;;;19.10;23.10;;;;;;2252534;61;20371;-56
2024/01/07 06:32:00;0.00;0.00;0.62;0.00;0.00;0.62;1.67;0.93;;;19.10;23.00;;;;;;2252430;61;20394;-59
2024/01/07 06:34:45;0.00;0.00;0.62;0.00;0.00;0.62;1.97;1.03;;;19.10;23.00;;;;;;2252321;61;20375;-58
2024/01/07 06:37:29;0.00;0.00;0.62;0.00;0.00;0.62;1.60;0.93;;;19.10;23.60;;;;;;2252740;61;21206;-60
2024/01/07 06:40:15;0.00;0.00;0.62;0.00;0.00;0.62;1.73;1.03;;;19.10;23.00;;;;;;2252629;61;20465;-56
2024/01/07 06:42:59;0.00;0.00;0.62;0.00;0.00;0.62;2.00;1.27;;;19.10;23.00;;;;;;2251820;61;20370;-59
2024/01/07 06:45:44;0.00;0.00;0.62;0.00;0.00;0.62;1.80;1.13;;;19.10;23.00;;;;;;2252527;61;20391;-58
2024/01/07 06:48:30;0.00;0.00;0.62;0.00;0.00;0.62;1.93;1.30;;;19.10;23.10;;;;;;2251984;61;20413;-59
2024/01/07 06:51:15;0.00;0.00;0.62;0.00;0.00;0.62;1.90;1.03;;;19.10;23.00;;;;;;2252032;61;20445;-55
2024/01/07 06:53:59;0.00;0.00;0.62;0.00;0.00;0.62;1.80;1.17;;;19.10;23.10;;;;;;2252431;61;20362;-58
2024/01/07 06:56:44;0.00;0.00;0.62;0.00;0.00;0.62;2.37;1.23;;;19.10;23.00;;;;;;2252012;61;20868;-60
2024/01/07 06:59:28;0.00;0.00;0.62;0.00;0.00;0.62;1.90;1.00;;;19.10;23.00;;;;;;2252485;61;20394;-58
2024/01/07 07:02:13;0.00;0.00;0.62;0.00;0.00;0.62;1.50;0.90;;;19.10;23.00;;;;;;2262659;56;20899;-53
2024/01/07 07:04:59;0.00;0.00;0.62;0.00;0.00;0.62;1.80;1.10;;;19.10;23.00;;;;;;2256012;61;20810;-59
2024/01/07 07:07:43;0.00;0.00;0.62;0.00;0.00;0.62;1.47;0.90;;;19.10;23.00;;;;;;2256039;61;20369;-58
2024/01/07 07:10:28;0.00;0.00;0.62;0.00;0.00;0.62;1.77;1.13;;;19.10;23.00;;;;;;2255538;61;20943;-59
2024/01/07 07:13:12;0.00;0.00;0.62;0.00;0.00;0.62;1.90;1.27;;;19.10;23.00;;;;;;2252087;61;20366;-57
2024/01/07 07:15:57;0.00;0.00;0.62;0.00;0.00;0.62;1.70;1.20;;;19.10;23.00;;;;;;2252370;61;20931;-57
2024/01/07 07:18:42;0.00;0.00;0.62;0.00;0.00;0.62;2.43;1.50;;;19.10;23.00;;;;;;2251649;61;20370;-58
2024/01/07 07:21:28;0.00;0.00;0.62;0.00;0.00;0.62;2.03;1.43;;;19.10;23.00;;;;;;2252337;61;20386;-60
2024/01/07 07:24:12;0.00;0.00;0.62;0.00;0.00;0.62;2.40;1.03;;;19.10;23.00;;;;;;2252408;61;20394;-59
2024/01/07 07:26:57;0.00;0.00;0.62;0.00;0.00;0.62;1.70;1.10;;;19.00;22.90;;;;;;2252215;61;20454;-57
2024/01/07 07:29:41;0.00;0.00;0.62;0.00;0.00;0.62;2.17;1.30;;;19.00;22.90;;;;;;2252424;61;20370;-58
2024/01/07 07:32:26;0.00;0.00;0.62;0.00;0.00;0.62;2.17;1.17;;;19.00;22.90;;;;;;2252163;61;20455;-58
2024/01/07 07:35:11;0.00;0.00;0.62;0.00;0.00;0.62;2.20;1.20;;;19.10;23.00;;;;;;2252056;61;20438;-59
2024/01/07 07:37:57;0.00;0.00;0.62;0.00;0.00;0.62;1.70;1.10;;;19.10;23.00;;;;;;2252446;61;20370;-58
2024/01/07 07:40:42;0.00;0.00;0.62;0.00;0.00;0.62;1.67;1.10;;;19.00;22.90;;;;;;2252186;61;20506;-60
2024/01/07 07:43:28;0.00;0.00;0.62;0.00;0.00;0.62;1.90;1.10;;;19.00;22.90;;;;;;2252016;61;20425;-58
2024/01/07 07:46:13;0.00;0.00;0.62;0.00;0.00;0.62;1.40;1.00;;;19.00;22.90;;;;;;2252516;61;20367;-57
2024/01/07 07:48:58;0.00;0.00;0.62;0.00;0.00;0.62;2.30;1.30;;;19.00;22.90;;;;;;2252082;61;20363;-58
2024/01/07 07:51:44;0.00;0.00;0.62;0.00;0.00;0.62;1.73;1.17;;;19.00;22.90;;;;;;2252076;61;20473;-58
2024/01/07 07:54:30;0.00;0.00;0.62;0.00;0.00;0.62;1.63;1.00;;;19.00;22.90;;;;;;2251865;61;20903;-58
2024/01/07 07:57:15;0.00;0.00;0.62;0.00;0.00;0.62;2.23;1.13;;;19.00;22.90;;;;;;2251839;61;20440;-59
2024/01/07 07:59:59;0.00;0.00;0.62;0.00;0.00;0.62;2.83;1.80;;;19.00;22.90;;;;;;2252066;61;20421;-59
2024/01/07 08:02:44;0.00;0.00;0.62;0.00;0.00;0.62;3.23;2.00;;;19.00;22.90;;;;;;2251745;61;20475;-59
2024/01/07 08:05:28;0.00;0.00;0.62;0.00;0.00;0.62;3.70;2.40;;;19.00;22.90;;;;;;2252211;61;20861;-59
2024/01/07 08:08:13;0.00;0.00;0.62;0.00;0.00;0.62;3.20;2.27;;;19.00;22.90;;;;;;2252393;61;20363;-59
2024/01/07 08:10:59;0.00;0.00;0.62;0.00;0.00;0.62;3.07;2.47;;;19.00;23.40;;;;;;2251946;61;20457;-57
2024/01/07 08:13:43;0.00;0.00;0.62;0.00;0.00;0.62;3.73;2.30;;;19.00;22.90;;;;;;2252067;61;20374;-59
2024/01/07 08:16:28;0.00;0.00;0.62;0.00;0.00;0.62;2.70;1.90;;;19.00;22.80;;;;;;2252273;61;20911;-56
2024/01/07 08:19:12;0.00;0.00;0.62;0.00;0.00;0.62;3.23;2.43;;;19.00;22.90;;;;;;2251737;61;20513;-53
2024/01/07 08:21:57;0.00;0.00;0.62;0.00;0.00;0.62;2.60;1.90;;;19.00;22.90;;;;;;2251821;61;20926;-57
2024/01/07 08:24:42;0.00;0.00;0.62;0.00;0.00;0.62;2.73;1.90;;;19.00;22.90;;;;;;2252321;61;20394;-57
2024/01/07 08:27:29;0.00;0.00;0.62;0.00;0.00;0.62;4.27;1.83;;;19.00;22.90;;;;;;2251812;61;20899;-60
2024/01/07 08:30:13;0.00;0.00;0.62;0.00;0.00;0.62;3.20;1.70;;;19.00;22.90;;;;;;2251916;61;20410;-59
2024/01/07 08:32:58;0.00;0.00;0.62;0.00;0.00;0.62;2.07;1.40;;;19.00;22.90;;;;;;2251646;61;20365;-59
2024/01/07 08:35:43;0.00;0.00;0.62;0.00;0.00;0.62;1.97;1.50;;;19.00;22.80;;;;;;2252482;61;20423;-63
2024/01/07 08:38:27;0.00;0.00;0.62;0.00;0.00;0.62;2.90;1.73;;;19.00;22.80;;;;;;2252252;61;20887;-56
2024/01/07 08:41:15;0.00;0.00;0.62;0.00;0.00;0.62;2.20;1.73;;;19.00;22.90;;;;;;2251891;61;20965;-59
2024/01/07 08:44:01;0.00;0.00;0.62;0.00;0.00;0.62;1.83;1.20;;;19.00;22.90;;;;;;2252182;61;20903;-58
2024/01/07 08:46:45;0.00;0.00;0.62;0.00;0.00;0.62;2.40;1.57;;;19.00;22.80;;;;;;2252890;61;20926;-59
2024/01/07 08:49:34;0.00;0.00;0.62;0.00;0.00;0.62;2.00;1.33;;;19.00;22.80;;;;;;2252622;61;20413;-59
2024/01/07 08:52:18;0.00;0.00;0.62;0.00;0.00;0.62;2.43;1.60;;;19.00;22.90;;;;;;2252540;61;20414;-58
2024/01/07 08:55:06;0.00;0.00;0.62;0.00;0.00;0.62;2.40;1.50;;;19.00;23.40;;;;;;2252696;61;20413;-60
2024/01/07 08:57:51;0.00;0.00;0.62;0.00;0.00;0.62;1.93;1.40;;;18.90;22.80;;;;;;2252981;61;20386;-55
2024/01/07 09:00:37;0.00;0.00;0.62;0.00;0.00;0.62;2.10;1.47;;;18.90;22.70;;;;;;2252693;61;20394;-60
2024/01/07 09:03:21;0.00;0.00;0.62;0.00;0.00;0.62;2.60;1.80;;;18.90;22.80;;;;;;2252282;61;20459;-59
2024/01/07 09:06:06;0.00;0.00;0.62;0.00;0.00;0.62;2.30;1.40;;;18.90;22.80;;;;;;2252869;61;20425;-58
2024/01/07 09:08:51;0.00;0.00;0.62;0.00;0.00;0.62;2.77;1.80;;;18.90;22.80;;;;;;2252846;61;20366;-59
2024/01/07 09:11:36;0.00;0.00;0.62;0.00;0.00;0.62;3.93;2.03;;;18.90;22.80;;;;;;2252334;61;20389;-59
2024/01/07 09:14:21;0.00;0.00;0.62;0.00;0.00;0.62;2.53;2.07;;;18.90;22.80;;;;;;2252820;61;20455;-57
2024/01/07 09:17:07;0.00;0.00;0.62;0.00;0.00;0.62;2.60;1.97;;;18.90;22.80;;;;;;2252655;61;20386;-55
2024/01/07 09:19:52;0.00;0.00;0.62;0.00;0.00;0.62;3.50;2.73;;;18.90;22.80;;;;;;2252878;61;20425;-54
2024/01/07 09:22:36;0.00;0.00;0.62;0.00;0.00;0.62;4.70;3.43;;;19.00;22.80;;;;;;2252473;61;20729;-56
2024/01/07 09:25:21;0.00;0.00;0.62;0.00;0.00;0.62;6.23;3.80;;;19.00;22.80;;;;;;2252601;61;20482;-55
2024/01/07 09:28:05;0.00;0.00;0.62;0.00;0.00;0.62;7.00;4.50;;;19.00;22.80;;;;;;2252821;61;20363;-60
2024/01/07 09:30:50;0.00;0.00;0.62;0.00;0.00;0.62;5.87;4.57;;;18.90;22.70;;;;;;2252996;61;20848;-56
2024/01/07 09:33:36;0.00;0.00;0.62;0.00;0.00;0.62;5.97;3.90;;;18.90;22.70;;;;;;2252237;61;20433;-60
2024/01/07 09:36:21;0.00;0.00;0.62;0.00;0.00;0.62;5.97;4.50;;;18.90;22.70;;;;;;2252765;61;20888;-58
2024/01/07 09:39:06;0.00;0.00;0.62;0.00;0.00;0.62;6.37;5.10;;;18.90;22.70;;;;;;2252818;61;20367;-59
2024/01/07 09:41:51;0.00;0.00;0.62;0.00;0.00;0.62;7.87;5.60;;;18.90;22.70;;;;;;2252328;61;20410;-60
2024/01/07 09:44:36;0.00;0.00;0.62;0.00;0.00;0.62;7.57;5.67;;;18.90;23.30;;;;;;2252667;61;20421;-58
2024/01/07 09:47:23;0.00;0.00;0.62;0.00;0.00;0.62;7.17;5.40;;;18.90;22.70;;;;;;2252428;61;20462;-60
2024/01/07 09:50:10;0.00;0.00;0.62;0.00;0.00;0.62;8.17;6.33;;;18.90;22.70;;;;;;2252664;61;20370;-59
2024/01/07 09:53:01;0.00;0.00;0.62;0.00;0.00;0.62;10.87;7.40;;;18.90;22.70;;;;;;2252147;61;20378;-60
2024/01/07 09:56:01;0.00;0.00;0.62;0.00;0.00;0.62;8.20;6.13;;;18.90;22.70;;;;;;2252301;61;20382;-60
2024/01/07 09:58:49;0.00;0.00;0.62;0.00;0.00;0.62;9.30;6.67;;;18.90;22.70;;;;;;2252670;61;20895;-60
2024/01/07 10:01:38;0.00;0.00;0.62;0.00;0.00;0.62;8.47;6.73;;;18.90;22.70;;;;;;2252061;61;20868;-60
2024/01/07 10:04:24;0.00;0.00;0.62;0.00;0.00;0.62;7.70;5.60;;;18.90;22.70;;;;;;2252786;61;20394;-55
2024/01/07 10:07:10;0.00;0.00;0.62;0.00;0.00;0.62;8.40;6.10;;;18.90;22.70;;;;;;2252750;61;20379;-57
2024/01/07 10:09:55;0.00;0.00;0.62;0.00;0.00;0.62;8.20;5.70;;;18.90;22.70;;;;;;2252283;61;20441;-58
2024/01/07 10:12:40;0.00;0.00;0.62;0.00;0.00;0.62;7.00;5.27;;;18.90;22.70;;;;;;2252316;61;20763;-58
2024/01/07 10:15:27;0.00;0.00;0.62;0.00;0.00;0.62;6.90;5.47;;;18.90;22.70;;;;;;2252783;61;20366;-56
2024/01/07 10:18:14;0.00;0.00;0.62;0.00;0.00;0.62;7.63;5.40;;;18.90;22.70;;;;;;2252465;61;20939;-57
2024/01/07 10:21:03;0.00;0.00;0.62;0.00;0.00;0.62;7.90;6.20;;;18.90;22.70;;;;;;2252763;61;20385;-55
2024/01/07 10:23:49;0.00;0.00;0.62;0.00;0.00;0.62;7.17;5.57;;;18.90;22.70;;;;;;2252157;61;20451;-56
2024/01/07 10:26:34;0.00;0.00;0.62;0.00;0.00;0.62;7.10;5.63;;;18.90;22.70;;;;;;2252676;61;20757;-54
2024/01/07 10:29:20;0.00;0.00;0.62;0.00;0.00;0.62;6.50;4.77;;;18.90;22.70;;;;;;2252498;61;20939;-52
2024/01/07 10:32:06;0.00;0.00;0.62;0.00;0.00;0.62;7.33;5.77;;;18.90;22.70;;;;;;2252040;61;20387;-56
2024/01/07 10:34:57;0.00;0.00;0.62;0.00;0.00;0.62;7.43;5.70;;;18.90;22.70;;;;;;2252642;61;20406;-56
2024/01/07 10:37:42;0.00;0.00;0.62;0.00;0.00;0.62;9.43;6.10;;;18.90;22.70;;;;;;2252588;61;20382;-58
2024/01/07 10:40:33;0.00;0.00;0.62;0.00;0.00;0.62;7.73;6.10;;;18.90;22.70;;;;;;2252258;61;20938;-56
2024/01/07 10:43:19;0.00;0.00;0.62;0.00;0.00;0.62;6.80;5.57;;;18.90;22.70;;;;;;2252132;61;20367;-53
2024/01/07 10:46:04;0.00;0.00;0.62;0.00;0.00;0.62;7.63;5.67;;;18.90;22.70;;;;;;2252065;61;20975;-55
2024/01/07 10:48:58;0.00;0.00;0.62;0.00;0.00;0.62;7.47;5.87;;;18.90;22.70;;;;;;2252566;61;20398;-54
2024/01/07 10:51:45;0.00;0.00;0.62;0.00;0.00;0.62;7.73;5.73;;;18.90;22.70;;;;;;2252311;61;20414;-55